createdAt,value
2019-06-08T00:00:09.844Z,100842.34
2019-06-08T00:05:14.744Z,100837.97
2019-06-08T00:10:21.152Z,100777.70
2019-06-08T00:15:22.471Z,100760.37
2019-06-08T00:20:25.272Z,100727.92
2019-06-08T00:25:27.999Z,100704.94
2019-06-08T00:30:32.836Z,100680.44
2019-06-08T00:35:35.712Z,100710.55
2019-06-08T00:40:38.462Z,100732.52
2019-06-08T00:45:41.282Z,100763.45
2019-06-08T00:50:45.725Z,100738.30
2019-06-08T00:55:50.082Z,100744.91
2019-06-08T01:00:54.739Z,100761.20
2019-06-08T01:05:57.989Z,100766.96
2019-06-08T01:11:00.687Z,100773.69
2019-06-08T01:16:03.516Z,100762.73
2019-06-08T01:21:06.382Z,100772.55
2019-06-08T01:26:09.347Z,100768.45
2019-06-08T01:31:12.081Z,100757.28
2019-06-08T01:36:14.793Z,100782.70
2019-06-08T01:41:17.502Z,100762.47
2019-06-08T01:46:20.200Z,100754.81
2019-06-08T01:51:22.925Z,100769.05
2019-06-08T01:56:25.650Z,100752.61
2019-06-08T02:01:29.837Z,100753.57
2019-06-08T02:06:32.672Z,100744.39
2019-06-08T02:11:35.423Z,100750.30
2019-06-08T02:16:38.153Z,100754.67
2019-06-08T02:21:40.852Z,100752.44
2019-06-08T02:26:43.567Z,100749.88
2019-06-08T02:31:48.155Z,100748.04
2019-06-08T02:36:50.910Z,100763.37
2019-06-08T02:41:53.621Z,100743.15
2019-06-08T02:46:56.382Z,100744.56
2019-06-08T02:52:00.311Z,100745.30
2019-06-08T02:57:04.114Z,100751.82
2019-06-08T03:02:09.318Z,100773.99
2019-06-08T03:07:15.596Z,100760.47
2019-06-08T03:12:21.925Z,100772.67
2019-06-08T03:17:24.627Z,100767.28
2019-06-08T03:22:27.334Z,100768.95
2019-06-08T03:27:30.064Z,100790.39
2019-06-08T03:32:34.844Z,100798.05
2019-06-08T03:37:37.850Z,100780.43
2019-06-08T03:42:40.747Z,100801.55
2019-06-08T03:47:45.160Z,100816.87
2019-06-08T03:52:48.078Z,100826.02
2019-06-08T03:57:50.813Z,100817.45
2019-06-08T04:02:53.539Z,100806.47
2019-06-08T04:07:56.254Z,100804.37
2019-06-08T04:12:58.984Z,100791.06
2019-06-08T04:18:01.781Z,100800.17
2019-06-08T04:23:04.493Z,100810.47
2019-06-08T04:28:07.234Z,100813.08
2019-06-08T04:33:10.019Z,100838.17
2019-06-08T04:38:12.730Z,100847.97
2019-06-08T04:43:15.447Z,100847.47
2019-06-08T04:48:18.182Z,100832.44
2019-06-08T04:53:20.915Z,100850.77
2019-06-08T04:58:23.655Z,100853.13
2019-06-08T05:03:26.396Z,100861.03
2019-06-08T05:08:29.107Z,100867.18
2019-06-08T05:13:31.866Z,100870.59
2019-06-08T05:18:34.567Z,100872.60
2019-06-08T05:23:37.302Z,100885.16
2019-06-08T05:28:41.062Z,100873.85
2019-06-08T05:33:45.443Z,100869.95
2019-06-08T05:38:48.298Z,100876.64
2019-06-08T05:43:51.065Z,100783.55
2019-06-08T05:48:54.466Z,100884.06
2019-06-08T05:53:58.114Z,100886.52
2019-06-08T05:59:01.108Z,100890.09
2019-06-08T06:04:04.109Z,100880.15
2019-06-08T06:09:07.631Z,100892.46
2019-06-08T06:14:24.603Z,100894.84
2019-06-08T06:19:27.409Z,100898.11
2019-06-08T06:24:30.161Z,100899.91
2019-06-08T06:29:32.937Z,100911.75
2019-06-08T06:34:35.657Z,100907.53
2019-06-08T06:39:38.390Z,100933.26
2019-06-08T06:44:42.064Z,100937.95
2019-06-08T06:49:46.287Z,100967.03
2019-06-08T06:54:49.164Z,100958.53
2019-06-08T06:59:52.032Z,100972.13
2019-06-08T07:04:54.879Z,100987.05
2019-06-08T07:09:57.618Z,100993.48
2019-06-08T07:15:00.366Z,101002.80
2019-06-08T07:20:03.458Z,101015.54
2019-06-08T07:25:06.318Z,101030.33
2019-06-08T07:30:09.317Z,101028.18
2019-06-08T07:35:12.134Z,101042.78
2019-06-08T07:40:16.004Z,101032.41
2019-06-08T07:45:19.063Z,101030.69
2019-06-08T07:50:21.831Z,101040.60
2019-06-08T07:55:24.656Z,101053.76
2019-06-08T08:00:27.472Z,101031.30
2019-06-08T08:05:30.185Z,101064.52
2019-06-08T08:10:32.895Z,101087.19
2019-06-08T08:15:35.612Z,101081.94
2019-06-08T08:20:38.464Z,101092.95
2019-06-08T08:25:41.179Z,101096.95
2019-06-08T08:30:43.905Z,101111.80
2019-06-08T08:35:48.212Z,101107.45
2019-06-08T08:40:52.829Z,101118.39
2019-06-08T08:45:58.262Z,101123.37
2019-06-08T08:51:03.266Z,101120.66
2019-06-08T08:56:07.365Z,101136.05
2019-06-08T09:01:10.083Z,101131.27
2019-06-08T09:06:12.787Z,101130.70
2019-06-08T09:11:17.494Z,101134.73
2019-06-08T09:16:20.176Z,101142.76
2019-06-08T09:21:22.959Z,101152.78
2019-06-08T09:26:31.084Z,101166.46
2019-06-08T09:31:30.985Z,101173.05
2019-06-08T09:36:33.844Z,101179.00
2019-06-08T09:41:38.031Z,101189.77
2019-06-08T09:46:40.929Z,101185.84
2019-06-08T09:51:43.843Z,101189.70
2019-06-08T09:56:47.846Z,101202.97
2019-06-08T10:01:50.708Z,101210.30
2019-06-08T10:06:54.331Z,101212.70
2019-06-08T10:11:59.570Z,101225.67
2019-06-08T10:17:03.586Z,101234.44
2019-06-08T10:22:08.381Z,101235.55
2019-06-08T10:27:11.668Z,101234.59
2019-06-08T10:32:18.006Z,101256.38
2019-06-08T10:37:20.985Z,101254.39
2019-06-08T10:42:23.843Z,101270.13
2019-06-08T10:47:29.562Z,101257.84
2019-06-08T10:52:31.227Z,101269.34
2019-06-08T10:57:53.964Z,101251.67
2019-06-08T11:03:18.395Z,101282.30
2019-06-08T11:08:22.371Z,101280.03
2019-06-08T11:14:00.988Z,101284.48
2019-06-08T11:19:04.756Z,101284.40
2019-06-08T11:24:21.631Z,101281.82
2019-06-08T11:30:10.824Z,101296.50
2019-06-08T11:35:28.585Z,101305.98
2019-06-08T11:40:47.733Z,101292.13
2019-06-08T11:46:11.789Z,101293.86
2019-06-08T11:51:24.380Z,101300.91
2019-06-08T11:56:30.069Z,101328.02
2019-06-08T12:01:37.933Z,101326.02
2019-06-08T12:06:42.717Z,101318.92
2019-06-08T12:11:51.289Z,101314.87
2019-06-08T12:16:54.513Z,101301.75
2019-06-08T12:21:58.140Z,101315.59
2019-06-08T12:27:10.132Z,101319.84
2019-06-08T12:32:10.480Z,101334.77
2019-06-08T12:37:17.865Z,101339.92
2019-06-08T12:42:22.940Z,101269.56
2019-06-08T12:47:26.715Z,101344.83
2019-06-08T12:52:29.808Z,101319.20
2019-06-08T12:57:33.126Z,101353.70
2019-06-08T13:02:38.431Z,101358.08
2019-06-08T13:07:41.165Z,101352.42
2019-06-08T13:12:43.877Z,101357.33
2019-06-08T13:17:47.740Z,101364.73
2019-06-08T13:22:51.215Z,101371.41
2019-06-08T13:27:53.931Z,101371.30
2019-06-08T13:32:58.087Z,101372.39
2019-06-08T13:38:02.007Z,101369.98
2019-06-08T13:43:04.714Z,101373.51
2019-06-08T13:48:08.923Z,101385.65
2019-06-08T13:53:12.579Z,101387.59
2019-06-08T13:58:15.324Z,101388.09
2019-06-08T14:03:18.716Z,101400.85
2019-06-08T14:08:24.158Z,101418.53
2019-06-08T14:13:33.867Z,101401.17
2019-06-08T14:18:34.050Z,101377.00
2019-06-08T14:23:41.115Z,101392.48
2019-06-08T14:28:41.160Z,101380.14
2019-06-08T14:33:43.912Z,101363.94
2019-06-08T14:38:49.113Z,101377.55
2019-06-08T14:43:51.220Z,101382.09
2019-06-08T14:48:53.947Z,101389.00
2019-06-08T14:53:58.270Z,101381.54
2019-06-08T14:59:03.909Z,101385.08
2019-06-08T15:04:10.712Z,101388.56
2019-06-08T15:09:17.697Z,101390.63
2019-06-08T15:14:21.862Z,101392.06
2019-06-08T15:19:27.028Z,101388.32
2019-06-08T15:24:33.137Z,101391.12
2019-06-08T15:29:39.176Z,101382.37
2019-06-08T15:34:44.072Z,101381.90
2019-06-08T15:40:09.429Z,101396.59
2019-06-08T15:45:22.293Z,101389.52
2019-06-08T15:50:32.688Z,101392.59
2019-06-08T15:55:40.152Z,101411.08
2019-06-08T16:00:44.513Z,101379.33
2019-06-08T16:05:49.404Z,101396.37
2019-06-08T16:10:53.627Z,101399.11
2019-06-08T16:15:59.077Z,101381.28
2019-06-08T16:21:04.408Z,101397.87
2019-06-08T16:26:08.909Z,101407.52
2019-06-08T16:31:13.244Z,101414.18
2019-06-08T16:36:19.122Z,101413.50
2019-06-08T16:41:24.486Z,101423.03
2019-06-08T16:46:30.032Z,101427.40
2019-06-08T16:51:37.076Z,101420.84
2019-06-08T16:56:43.213Z,101436.27
2019-06-08T17:01:46.208Z,101417.50
2019-06-08T17:06:48.922Z,101421.88
2019-06-08T17:11:52.525Z,101429.05
2019-06-08T17:16:55.291Z,101454.31
2019-06-08T17:21:58.020Z,101457.66
2019-06-08T17:27:00.905Z,101457.15
2019-06-08T17:32:03.778Z,101466.84
2019-06-08T17:37:06.568Z,101478.19
2019-06-08T17:42:09.304Z,101494.75
2019-06-08T17:47:12.107Z,101480.35
2019-06-08T17:52:14.868Z,101488.25
2019-06-08T17:57:17.584Z,101511.33
2019-06-08T18:02:27.284Z,101542.20
2019-06-08T18:07:27.632Z,101584.73
2019-06-08T18:12:36.914Z,101576.80
2019-06-08T18:17:53.635Z,101569.65
2019-06-08T18:22:58.973Z,101594.42
2019-06-08T18:28:09.890Z,101591.30
2019-06-08T18:33:08.366Z,101593.50
2019-06-08T18:38:11.576Z,101594.03
2019-06-08T18:43:16.939Z,101598.03
2019-06-08T18:48:22.817Z,101592.01
2019-06-08T18:53:27.736Z,101590.79
2019-06-08T18:58:30.629Z,101593.56
2019-06-08T19:03:33.357Z,101594.73
2019-06-08T19:08:39.207Z,101587.70
2019-06-08T19:13:41.279Z,101592.41
2019-06-08T19:18:52.714Z,101599.95
2019-06-08T19:24:01.362Z,101540.27
2019-06-08T19:29:10.537Z,101609.25
2019-06-08T19:34:18.130Z,101617.20
2019-06-08T19:39:57.717Z,101614.76
2019-06-08T19:45:08.808Z,101627.62
2019-06-08T19:50:21.369Z,101623.71
2019-06-08T19:55:45.449Z,101634.62
2019-06-08T20:00:59.408Z,101643.79
2019-06-08T20:06:02.275Z,101652.62
2019-06-08T20:11:08.117Z,101673.87
2019-06-08T20:16:11.583Z,101671.58
2019-06-08T20:21:14.357Z,101676.12
2019-06-08T20:26:17.399Z,101668.94
2019-06-08T20:31:20.196Z,101689.12
2019-06-08T20:36:22.907Z,101686.03
2019-06-08T20:41:27.621Z,101689.73
2019-06-08T20:46:30.267Z,101694.00
2019-06-08T20:51:33.085Z,101689.92
2019-06-08T20:56:37.241Z,101694.00
2019-06-08T21:01:43.656Z,101694.30
2019-06-08T21:12:19.285Z,101708.08
2019-06-08T21:17:24.747Z,101704.61
2019-06-08T21:22:28.524Z,101711.37
2019-06-08T21:27:31.226Z,101713.04
2019-06-08T21:32:33.954Z,101715.22
2019-06-08T21:37:37.676Z,101719.86
2019-06-08T21:42:40.592Z,101726.34
2019-06-08T21:47:43.320Z,101714.38
2019-06-08T21:52:48.657Z,101726.17
2019-06-08T21:57:52.667Z,101729.27
2019-06-08T22:02:58.459Z,101724.12
2019-06-08T22:08:01.348Z,101725.69
2019-06-08T22:13:12.592Z,101662.87
2019-06-08T22:18:21.552Z,101724.19
2019-06-08T22:23:24.268Z,101729.09
2019-06-08T22:28:27.114Z,101737.69
2019-06-08T22:33:34.315Z,101737.02
2019-06-08T22:38:37.707Z,101747.44
2019-06-08T22:43:40.409Z,101739.30
2019-06-08T22:48:43.286Z,101755.28
2019-06-08T22:53:47.857Z,101746.41
2019-06-08T22:58:50.629Z,101664.25
2019-06-08T23:03:53.627Z,101756.59
2019-06-08T23:09:00.722Z,101761.20
2019-06-08T23:14:04.381Z,101767.90
2019-06-08T23:19:08.033Z,101778.44
2019-06-08T23:24:10.915Z,101772.02
2019-06-08T23:29:40.563Z,101779.84
2019-06-08T23:34:54.972Z,101794.12
2019-06-08T23:40:02.586Z,101792.89
2019-06-08T23:45:10.347Z,101786.91
2019-06-08T23:50:27.241Z,101782.97
2019-06-08T23:55:31.071Z,101783.61
